sensor_id;sensor_type;location;lat;lon;timestamp;temperature;humidity
8882;DHT22;4477;48.736;9.176;2024-03-23T00:56:19;8.30;96.80
8882;DHT22;4477;48.736;9.176;2024-03-23T00:58:45;8.50;96.20
8882;DHT22;4477;48.736;9.176;2024-03-23T01:01:11;8.50;95.70
8882;DHT22;4477;48.736;9.176;2024-03-23T01:03:38;8.60;95.50
8882;DHT22;4477;48.736;9.176;2024-03-23T01:06:04;8.70;95.20
8882;DHT22;4477;48.736;9.176;2024-03-23T01:08:31;8.60;95.40
8882;DHT22;4477;48.736;9.176;2024-03-23T01:11:00;8.70;95.20
8882;DHT22;4477;48.736;9.176;2024-03-23T01:13:28;8.80;94.70
8882;DHT22;4477;48.736;9.176;2024-03-23T01:15:56;8.80;94.70
8882;DHT22;4477;48.736;9.176;2024-03-23T01:18:23;8.80;94.40
8882;DHT22;4477;48.736;9.176;2024-03-23T01:20:49;8.80;94.50
8882;DHT22;4477;48.736;9.176;2024-03-23T01:23:19;8.70;94.30
8882;DHT22;4477;48.736;9.176;2024-03-23T01:25:52;8.70;94.60
8882;DHT22;4477;48.736;9.176;2024-03-23T01:28:21;8.50;94.90
8882;DHT22;4477;48.736;9.176;2024-03-23T01:30:47;8.50;95.10
8882;DHT22;4477;48.736;9.176;2024-03-23T01:33:14;8.50;95.50
8882;DHT22;4477;48.736;9.176;2024-03-23T01:35:40;8.60;95.20
8882;DHT22;4477;48.736;9.176;2024-03-23T01:38:07;8.80;95.30
8882;DHT22;4477;48.736;9.176;2024-03-23T01:40:33;8.90;94.40
8882;DHT22;4477;48.736;9.176;2024-03-23T01:43:03;9.10;94.00
8882;DHT22;4477;48.736;9.176;2024-03-23T01:45:31;9.10;93.80
8882;DHT22;4477;48.736;9.176;2024-03-23T01:47:58;9.10;93.80
8882;DHT22;4477;48.736;9.176;2024-03-23T01:50:25;9.10;93.90
8882;DHT22;4477;48.736;9.176;2024-03-23T01:52:52;9.10;93.90
8882;DHT22;4477;48.736;9.176;2024-03-23T01:55:19;9.10;93.60
8882;DHT22;4477;48.736;9.176;2024-03-23T01:57:46;9.20;93.60
8882;DHT22;4477;48.736;9.176;2024-03-23T02:00:13;9.30;93.20
8882;DHT22;4477;48.736;9.176;2024-03-23T02:02:45;9.40;93.10
8882;DHT22;4477;48.736;9.176;2024-03-23T02:05:11;9.40;93.10
8882;DHT22;4477;48.736;9.176;2024-03-23T02:07:38;9.40;93.20
8882;DHT22;4477;48.736;9.176;2024-03-23T02:10:06;9.40;93.00
8882;DHT22;4477;48.736;9.176;2024-03-23T02:12:33;9.30;93.00
8882;DHT22;4477;48.736;9.176;2024-03-23T02:14:59;9.40;93.10
8882;DHT22;4477;48.736;9.176;2024-03-23T02:17:26;9.40;92.90
8882;DHT22;4477;48.736;9.176;2024-03-23T02:19:53;9.30;93.00
8882;DHT22;4477;48.736;9.176;2024-03-23T02:22:20;9.30;93.20
8882;DHT22;4477;48.736;9.176;2024-03-23T02:24:47;9.20;93.50
8882;DHT22;4477;48.736;9.176;2024-03-23T02:27:14;9.00;93.60
8882;DHT22;4477;48.736;9.176;2024-03-23T02:29:40;8.90;94.20
8882;DHT22;4477;48.736;9.176;2024-03-23T02:32:07;8.80;94.70
8882;DHT22;4477;48.736;9.176;2024-03-23T02:34:34;8.70;95.20
8882;DHT22;4477;48.736;9.176;2024-03-23T02:37:01;8.70;95.60
8882;DHT22;4477;48.736;9.176;2024-03-23T02:39:27;8.60;95.80
8882;DHT22;4477;48.736;9.176;2024-03-23T02:41:56;8.50;96.60
8882;DHT22;4477;48.736;9.176;2024-03-23T02:44:21;8.40;97.30
8882;DHT22;4477;48.736;9.176;2024-03-23T02:46:48;8.80;96.90
8882;DHT22;4477;48.736;9.176;2024-03-23T02:49:14;9.10;96.00
8882;DHT22;4477;48.736;9.176;2024-03-23T02:51:41;9.10;95.70
8882;DHT22;4477;48.736;9.176;2024-03-23T02:54:07;9.10;96.00
8882;DHT22;4477;48.736;9.176;2024-03-23T02:56:34;9.10;96.00
8882;DHT22;4477;48.736;9.176;2024-03-23T02:59:01;9.10;96.20
8882;DHT22;4477;48.736;9.176;2024-03-23T03:01:28;9.10;96.10
8882;DHT22;4477;48.736;9.176;2024-03-23T03:03:54;9.30;95.50
8882;DHT22;4477;48.736;9.176;2024-03-23T03:06:24;9.40;95.50
8882;DHT22;4477;48.736;9.176;2024-03-23T03:08:49;9.40;95.30
8882;DHT22;4477;48.736;9.176;2024-03-23T03:11:16;9.30;95.50
8882;DHT22;4477;48.736;9.176;2024-03-23T03:13:42;9.30;95.50
8882;DHT22;4477;48.736;9.176;2024-03-23T03:16:11;9.20;95.50
8882;DHT22;4477;48.736;9.176;2024-03-23T03:18:37;9.20;95.80
8882;DHT22;4477;48.736;9.176;2024-03-23T03:21:04;9.10;96.00
8882;DHT22;4477;48.736;9.176;2024-03-23T03:23:31;9.00;96.30
8882;DHT22;4477;48.736;9.176;2024-03-23T03:25:58;8.90;96.70
8882;DHT22;4477;48.736;9.176;2024-03-23T03:28:24;8.80;97.10
8882;DHT22;4477;48.736;9.176;2024-03-23T03:30:51;8.80;97.20
8882;DHT22;4477;48.736;9.176;2024-03-23T03:33:19;8.80;97.30
8882;DHT22;4477;48.736;9.176;2024-03-23T03:35:45;8.80;97.30
8882;DHT22;4477;48.736;9.176;2024-03-23T03:38:11;8.80;97.30
8882;DHT22;4477;48.736;9.176;2024-03-23T03:40:38;9.00;97.30
8882;DHT22;4477;48.736;9.176;2024-03-23T03:43:04;8.90;97.10
8882;DHT22;4477;48.736;9.176;2024-03-23T03:45:31;8.80;97.40
8882;DHT22;4477;48.736;9.176;2024-03-23T03:47:57;8.90;97.70
8882;DHT22;4477;48.736;9.176;2024-03-23T03:50:26;8.80;98.00
8882;DHT22;4477;48.736;9.176;2024-03-23T03:52:51;8.70;98.20
8882;DHT22;4477;48.736;9.176;2024-03-23T03:55:18;8.60;98.50
8882;DHT22;4477;48.736;9.176;2024-03-23T03:57:44;8.60;98.80
8882;DHT22;4477;48.736;9.176;2024-03-23T04:00:12;8.60;98.80
8882;DHT22;4477;48.736;9.176;2024-03-23T04:02:38;8.60;99.20
8882;DHT22;4477;48.736;9.176;2024-03-23T04:05:05;8.50;99.30
8882;DHT22;4477;48.736;9.176;2024-03-23T04:07:33;8.40;99.60
8882;DHT22;4477;48.736;9.176;2024-03-23T04:09:59;8.40;99.90
8882;DHT22;4477;48.736;9.176;2024-03-23T04:12:25;8.40;99.90
8882;DHT22;4477;48.736;9.176;2024-03-23T04:14:52;8.50;99.90
8882;DHT22;4477;48.736;9.176;2024-03-23T04:17:19;8.40;99.90
8882;DHT22;4477;48.736;9.176;2024-03-23T04:19:46;8.40;99.90
8882;DHT22;4477;48.736;9.176;2024-03-23T04:22:12;8.50;99.90
8882;DHT22;4477;48.736;9.176;2024-03-23T04:24:40;8.40;99.90
8882;DHT22;4477;48.736;9.176;2024-03-23T04:27:06;8.40;99.90
8882;DHT22;4477;48.736;9.176;2024-03-23T04:29:33;8.30;99.90
8882;DHT22;4477;48.736;9.176;2024-03-23T04:31:59;8.30;99.90
8882;DHT22;4477;48.736;9.176;2024-03-23T04:34:27;8.20;99.90
8882;DHT22;4477;48.736;9.176;2024-03-23T04:36:53;8.20;99.90
8882;DHT22;4477;48.736;9.176;2024-03-23T04:39:19;8.20;99.90
8882;DHT22;4477;48.736;9.176;2024-03-23T04:41:48;8.20;99.90
8882;DHT22;4477;48.736;9.176;2024-03-23T04:44:15;8.70;99.90
8882;DHT22;4477;48.736;9.176;2024-03-23T04:46:42;8.80;99.90
8882;DHT22;4477;48.736;9.176;2024-03-23T04:49:09;8.70;99.90
8882;DHT22;4477;48.736;9.176;2024-03-23T04:51:36;8.70;99.90
8882;DHT22;4477;48.736;9.176;2024-03-23T04:54:04;8.60;99.90
8882;DHT22;4477;48.736;9.176;2024-03-23T04:56:31;8.60;99.90
8882;DHT22;4477;48.736;9.176;2024-03-23T04:59:00;8.70;99.90
8882;DHT22;4477;48.736;9.176;2024-03-23T05:01:27;8.80;99.90
8882;DHT22;4477;48.736;9.176;2024-03-23T05:03:54;8.80;99.90
8882;DHT22;4477;48.736;9.176;2024-03-23T05:06:20;8.70;99.90
8882;DHT22;4477;48.736;9.176;2024-03-23T05:08:47;8.60;99.90
8882;DHT22;4477;48.736;9.176;2024-03-23T05:11:13;8.50;99.90
8882;DHT22;4477;48.736;9.176;2024-03-23T05:13:48;8.40;99.90
8882;DHT22;4477;48.736;9.176;2024-03-23T05:16:33;8.30;99.90
8882;DHT22;4477;48.736;9.176;2024-03-23T05:19:08;8.20;99.90
8882;DHT22;4477;48.736;9.176;2024-03-23T05:21:35;8.20;99.90
8882;DHT22;4477;48.736;9.176;2024-03-23T05:24:03;8.10;99.90
8882;DHT22;4477;48.736;9.176;2024-03-23T05:26:31;8.10;99.90
8882;DHT22;4477;48.736;9.176;2024-03-23T05:29:00;8.00;99.90
8882;DHT22;4477;48.736;9.176;2024-03-23T05:31:27;8.10;99.90
8882;DHT22;4477;48.736;9.176;2024-03-23T05:33:58;8.00;99.90
8882;DHT22;4477;48.736;9.176;2024-03-23T05:36:28;8.00;99.90
8882;DHT22;4477;48.736;9.176;2024-03-23T05:39:03;8.00;99.90
8882;DHT22;4477;48.736;9.176;2024-03-23T05:41:31;7.90;99.90
8882;DHT22;4477;48.736;9.176;2024-03-23T05:44:02;7.90;99.90
8882;DHT22;4477;48.736;9.176;2024-03-23T05:46:33;7.80;99.90
8882;DHT22;4477;48.736;9.176;2024-03-23T05:49:02;7.80;99.90
8882;DHT22;4477;48.736;9.176;2024-03-23T05:51:35;7.80;99.90
8882;DHT22;4477;48.736;9.176;2024-03-23T05:54:01;7.70;99.90
8882;DHT22;4477;48.736;9.176;2024-03-23T05:56:28;7.70;99.90
8882;DHT22;4477;48.736;9.176;2024-03-23T05:58:54;7.60;99.90
8882;DHT22;4477;48.736;9.176;2024-03-23T06:01:22;7.50;99.90
8882;DHT22;4477;48.736;9.176;2024-03-23T06:03:48;7.50;99.90
8882;DHT22;4477;48.736;9.176;2024-03-23T06:06:17;7.50;99.90
8882;DHT22;4477;48.736;9.176;2024-03-23T06:08:43;7.40;99.90
8882;DHT22;4477;48.736;9.176;2024-03-23T06:11:10;7.40;99.90
8882;DHT22;4477;48.736;9.176;2024-03-23T06:13:35;7.30;99.90
8882;DHT22;4477;48.736;9.176;2024-03-23T06:16:03;7.30;99.90
8882;DHT22;4477;48.736;9.176;2024-03-23T06:18:29;7.20;99.90
8882;DHT22;4477;48.736;9.176;2024-03-23T06:20:56;7.10;99.90
8882;DHT22;4477;48.736;9.176;2024-03-23T06:23:23;7.00;99.90
8882;DHT22;4477;48.736;9.176;2024-03-23T06:25:50;7.00;99.90
8882;DHT22;4477;48.736;9.176;2024-03-23T06:28:16;6.90;99.90
8882;DHT22;4477;48.736;9.176;2024-03-23T06:30:43;6.80;99.90
8882;DHT22;4477;48.736;9.176;2024-03-23T06:33:09;6.80;99.90
8882;DHT22;4477;48.736;9.176;2024-03-23T06:35:36;6.70;99.90
8882;DHT22;4477;48.736;9.176;2024-03-23T06:38:02;6.70;99.90
8882;DHT22;4477;48.736;9.176;2024-03-23T06:40:30;6.60;99.90
8882;DHT22;4477;48.736;9.176;2024-03-23T06:42:56;6.60;99.90
8882;DHT22;4477;48.736;9.176;2024-03-23T06:45:23;6.50;99.90
8882;DHT22;4477;48.736;9.176;2024-03-23T06:47:49;6.50;99.90
8882;DHT22;4477;48.736;9.176;2024-03-23T06:50:17;6.40;99.90
8882;DHT22;4477;48.736;9.176;2024-03-23T06:52:44;6.50;99.90
8882;DHT22;4477;48.736;9.176;2024-03-23T06:55:10;6.50;99.90
8882;DHT22;4477;48.736;9.176;2024-03-23T06:57:38;6.50;99.90
8882;DHT22;4477;48.736;9.176;2024-03-23T07:00:05;6.50;99.90
8882;DHT22;4477;48.736;9.176;2024-03-23T07:02:35;6.40;99.90
8882;DHT22;4477;48.736;9.176;2024-03-23T07:05:01;6.50;99.90
8882;DHT22;4477;48.736;9.176;2024-03-23T07:07:29;6.60;99.90
8882;DHT22;4477;48.736;9.176;2024-03-23T07:09:55;6.70;99.90
8882;DHT22;4477;48.736;9.176;2024-03-23T07:12:22;6.90;99.90
8882;DHT22;4477;48.736;9.176;2024-03-23T07:14:50;7.00;99.90
8882;DHT22;4477;48.736;9.176;2024-03-23T07:17:18;7.10;99.90
8882;DHT22;4477;48.736;9.176;2024-03-23T07:19:44;7.10;99.90
8882;DHT22;4477;48.736;9.176;2024-03-23T07:22:11;7.10;99.90
8882;DHT22;4477;48.736;9.176;2024-03-23T07:24:36;7.40;99.90
8882;DHT22;4477;48.736;9.176;2024-03-23T07:27:04;8.10;99.90
8882;DHT22;4477;48.736;9.176;2024-03-23T07:29:31;8.10;99.90
8882;DHT22;4477;48.736;9.176;2024-03-23T07:32:00;8.00;99.90
8882;DHT22;4477;48.736;9.176;2024-03-23T07:34:26;8.20;99.90
8882;DHT22;4477;48.736;9.176;2024-03-23T07:36:53;8.10;99.90
8882;DHT22;4477;48.736;9.176;2024-03-23T07:39:19;8.20;99.90
8882;DHT22;4477;48.736;9.176;2024-03-23T07:41:46;8.10;99.90
8882;DHT22;4477;48.736;9.176;2024-03-23T07:44:12;7.90;99.90
8882;DHT22;4477;48.736;9.176;2024-03-23T07:46:39;7.60;99.90
8882;DHT22;4477;48.736;9.176;2024-03-23T07:49:06;7.40;99.90
8882;DHT22;4477;48.736;9.176;2024-03-23T07:51:33;7.30;99.90
8882;DHT22;4477;48.736;9.176;2024-03-23T07:54:00;7.30;99.90
8882;DHT22;4477;48.736;9.176;2024-03-23T07:56:27;7.40;99.90
8882;DHT22;4477;48.736;9.176;2024-03-23T07:58:53;7.30;99.90
8882;DHT22;4477;48.736;9.176;2024-03-23T08:01:20;7.20;99.90
8882;DHT22;4477;48.736;9.176;2024-03-23T08:03:46;7.30;99.90
8882;DHT22;4477;48.736;9.176;2024-03-23T08:06:16;7.40;99.90
8882;DHT22;4477;48.736;9.176;2024-03-23T08:08:44;7.30;99.90
8882;DHT22;4477;48.736;9.176;2024-03-23T08:11:11;7.00;99.90
8882;DHT22;4477;48.736;9.176;2024-03-23T08:13:39;6.50;99.90
8882;DHT22;4477;48.736;9.176;2024-03-23T08:16:06;6.20;99.90
8882;DHT22;4477;48.736;9.176;2024-03-23T08:18:32;6.10;99.90
8882;DHT22;4477;48.736;9.176;2024-03-23T08:21:00;6.40;99.90
8882;DHT22;4477;48.736;9.176;2024-03-23T08:23:29;6.60;99.90
8882;DHT22;4477;48.736;9.176;2024-03-23T08:25:57;6.70;99.90
8882;DHT22;4477;48.736;9.176;2024-03-23T08:28:23;6.70;99.90
8882;DHT22;4477;48.736;9.176;2024-03-23T08:30:51;6.60;99.90
8882;DHT22;4477;48.736;9.176;2024-03-23T08:33:16;6.70;99.90
8882;DHT22;4477;48.736;9.176;2024-03-23T08:35:53;6.70;99.90
8882;DHT22;4477;48.736;9.176;2024-03-23T08:38:19;6.80;99.90
8882;DHT22;4477;48.736;9.176;2024-03-23T08:40:47;7.10;99.90
8882;DHT22;4477;48.736;9.176;2024-03-23T08:43:13;8.10;99.90
8882;DHT22;4477;48.736;9.176;2024-03-23T08:45:40;8.70;99.90
8882;DHT22;4477;48.736;9.176;2024-03-23T08:48:07;9.80;99.90
8882;DHT22;4477;48.736;9.176;2024-03-23T08:50:34;11.00;99.90
8882;DHT22;4477;48.736;9.176;2024-03-23T08:53:00;11.10;99.00
8882;DHT22;4477;48.736;9.176;2024-03-23T08:55:27;10.30;99.30
8882;DHT22;4477;48.736;9.176;2024-03-23T08:57:54;9.80;98.90
8882;DHT22;4477;48.736;9.176;2024-03-23T09:00:21;9.80;97.10
8882;DHT22;4477;48.736;9.176;2024-03-23T09:02:47;10.00;93.80
8882;DHT22;4477;48.736;9.176;2024-03-23T09:05:14;10.80;95.00
8882;DHT22;4477;48.736;9.176;2024-03-23T09:07:40;10.30;93.40
8882;DHT22;4477;48.736;9.176;2024-03-23T09:10:08;9.10;93.70
8882;DHT22;4477;48.736;9.176;2024-03-23T09:12:34;8.10;96.00
8882;DHT22;4477;48.736;9.176;2024-03-23T09:15:03;7.50;97.50
8882;DHT22;4477;48.736;9.176;2024-03-23T09:17:29;7.10;99.30
8882;DHT22;4477;48.736;9.176;2024-03-23T09:19:56;7.30;99.90
8882;DHT22;4477;48.736;9.176;2024-03-23T09:22:23;7.50;99.50
8882;DHT22;4477;48.736;9.176;2024-03-23T09:24:48;7.80;99.20
8882;DHT22;4477;48.736;9.176;2024-03-23T09:27:15;8.10;99.30
8882;DHT22;4477;48.736;9.176;2024-03-23T09:29:41;8.20;97.30
8882;DHT22;4477;48.736;9.176;2024-03-23T09:32:09;8.20;95.00
8882;DHT22;4477;48.736;9.176;2024-03-23T09:34:35;8.00;94.10
8882;DHT22;4477;48.736;9.176;2024-03-23T09:37:02;8.00;92.90
8882;DHT22;4477;48.736;9.176;2024-03-23T09:39:28;8.20;92.10
8882;DHT22;4477;48.736;9.176;2024-03-23T09:41:56;8.50;90.50
8882;DHT22;4477;48.736;9.176;2024-03-23T09:44:23;9.10;86.20
8882;DHT22;4477;48.736;9.176;2024-03-23T09:46:51;9.30;85.00
8882;DHT22;4477;48.736;9.176;2024-03-23T09:49:19;9.30;86.70
8882;DHT22;4477;48.736;9.176;2024-03-23T09:51:46;9.10;85.60
8882;DHT22;4477;48.736;9.176;2024-03-23T09:54:11;8.70;80.60
8882;DHT22;4477;48.736;9.176;2024-03-23T09:56:38;8.40;82.90
8882;DHT22;4477;48.736;9.176;2024-03-23T09:59:05;8.30;86.00
8882;DHT22;4477;48.736;9.176;2024-03-23T10:01:32;8.00;83.50
8882;DHT22;4477;48.736;9.176;2024-03-23T10:03:58;7.90;85.90
8882;DHT22;4477;48.736;9.176;2024-03-23T10:06:26;7.90;88.70
8882;DHT22;4477;48.736;9.176;2024-03-23T10:08:53;8.40;87.80
8882;DHT22;4477;48.736;9.176;2024-03-23T10:11:21;9.10;86.60
8882;DHT22;4477;48.736;9.176;2024-03-23T10:13:47;8.90;85.40
8882;DHT22;4477;48.736;9.176;2024-03-23T10:16:21;8.70;85.20
8882;DHT22;4477;48.736;9.176;2024-03-23T10:18:48;8.50;86.90
8882;DHT22;4477;48.736;9.176;2024-03-23T10:21:16;8.70;86.90
8882;DHT22;4477;48.736;9.176;2024-03-23T10:23:43;9.10;82.80
8882;DHT22;4477;48.736;9.176;2024-03-23T10:26:16;9.20;82.00
8882;DHT22;4477;48.736;9.176;2024-03-23T10:28:52;9.00;81.90
8882;DHT22;4477;48.736;9.176;2024-03-23T10:31:20;9.10;79.50
8882;DHT22;4477;48.736;9.176;2024-03-23T10:33:46;10.20;75.80
8882;DHT22;4477;48.736;9.176;2024-03-23T10:36:13;10.70;74.30
8882;DHT22;4477;48.736;9.176;2024-03-23T10:38:40;10.60;70.60
8882;DHT22;4477;48.736;9.176;2024-03-23T10:41:10;9.80;72.10
8882;DHT22;4477;48.736;9.176;2024-03-23T10:43:37;9.10;75.40
8882;DHT22;4477;48.736;9.176;2024-03-23T10:46:04;8.80;76.90
8882;DHT22;4477;48.736;9.176;2024-03-23T10:48:30;8.90;75.60
8882;DHT22;4477;48.736;9.176;2024-03-23T10:50:58;8.80;77.10
8882;DHT22;4477;48.736;9.176;2024-03-23T10:53:25;8.80;78.50
8882;DHT22;4477;48.736;9.176;2024-03-23T10:55:54;8.50;77.80
8882;DHT22;4477;48.736;9.176;2024-03-23T10:58:26;7.70;82.00
8882;DHT22;4477;48.736;9.176;2024-03-23T11:00:54;7.30;87.10
8882;DHT22;4477;48.736;9.176;2024-03-23T11:03:33;6.50;93.20
8882;DHT22;4477;48.736;9.176;2024-03-23T11:06:01;5.20;98.10
8882;DHT22;4477;48.736;9.176;2024-03-23T11:08:33;4.40;99.90
8882;DHT22;4477;48.736;9.176;2024-03-23T11:11:18;3.80;99.90
8882;DHT22;4477;48.736;9.176;2024-03-23T11:13:48;3.50;99.90
8882;DHT22;4477;48.736;9.176;2024-03-23T11:16:16;3.80;99.90
8882;DHT22;4477;48.736;9.176;2024-03-23T11:18:42;4.50;99.90
8882;DHT22;4477;48.736;9.176;2024-03-23T11:21:10;5.00;99.90
8882;DHT22;4477;48.736;9.176;2024-03-23T11:23:36;5.60;99.90
8882;DHT22;4477;48.736;9.176;2024-03-23T11:26:07;6.00;99.90
8882;DHT22;4477;48.736;9.176;2024-03-23T11:28:33;6.50;99.90
8882;DHT22;4477;48.736;9.176;2024-03-23T11:31:09;6.60;99.90
8882;DHT22;4477;48.736;9.176;2024-03-23T11:33:35;7.50;99.90
8882;DHT22;4477;48.736;9.176;2024-03-23T11:36:02;8.80;99.90
8882;DHT22;4477;48.736;9.176;2024-03-23T11:38:28;8.80;99.90
8882;DHT22;4477;48.736;9.176;2024-03-23T11:40:55;8.50;99.90
8882;DHT22;4477;48.736;9.176;2024-03-23T11:43:21;8.60;99.90
8882;DHT22;4477;48.736;9.176;2024-03-23T11:45:51;8.70;99.90
8882;DHT22;4477;48.736;9.176;2024-03-23T11:48:21;9.20;99.60
8882;DHT22;4477;48.736;9.176;2024-03-23T11:50:49;9.30;97.10
8882;DHT22;4477;48.736;9.176;2024-03-23T11:53:17;9.60;94.40
8882;DHT22;4477;48.736;9.176;2024-03-23T11:55:46;9.90;94.40
8882;DHT22;4477;48.736;9.176;2024-03-23T11:58:13;10.00;91.50
8882;DHT22;4477;48.736;9.176;2024-03-23T12:00:41;9.40;90.70
8882;DHT22;4477;48.736;9.176;2024-03-23T12:03:07;9.20;92.30
8882;DHT22;4477;48.736;9.176;2024-03-23T12:05:37;8.90;90.40
8882;DHT22;4477;48.736;9.176;2024-03-23T12:08:22;9.10;90.70
8882;DHT22;4477;48.736;9.176;2024-03-23T12:10:51;9.10;89.30
8882;DHT22;4477;48.736;9.176;2024-03-23T12:13:18;8.90;86.70
8882;DHT22;4477;48.736;9.176;2024-03-23T12:15:47;8.30;83.70
8882;DHT22;4477;48.736;9.176;2024-03-23T12:18:13;8.30;88.50
8882;DHT22;4477;48.736;9.176;2024-03-23T12:20:42;8.50;87.10
8882;DHT22;4477;48.736;9.176;2024-03-23T12:23:10;8.60;86.40
8882;DHT22;4477;48.736;9.176;2024-03-23T12:25:37;8.40;81.60
8882;DHT22;4477;48.736;9.176;2024-03-23T12:28:04;7.80;84.00
8882;DHT22;4477;48.736;9.176;2024-03-23T12:30:33;7.60;84.60
8882;DHT22;4477;48.736;9.176;2024-03-23T12:32:59;7.70;86.20
8882;DHT22;4477;48.736;9.176;2024-03-23T12:35:26;7.80;88.40
8882;DHT22;4477;48.736;9.176;2024-03-23T12:37:54;7.90;83.90
8882;DHT22;4477;48.736;9.176;2024-03-23T12:40:21;7.90;85.90
8882;DHT22;4477;48.736;9.176;2024-03-23T12:42:46;8.00;82.80
8882;DHT22;4477;48.736;9.176;2024-03-23T12:45:13;8.30;84.40
8882;DHT22;4477;48.736;9.176;2024-03-23T12:47:39;8.30;79.10
8882;DHT22;4477;48.736;9.176;2024-03-23T12:50:07;8.10;83.70
8882;DHT22;4477;48.736;9.176;2024-03-23T12:52:34;7.90;80.70
8882;DHT22;4477;48.736;9.176;2024-03-23T12:55:03;7.60;84.30
8882;DHT22;4477;48.736;9.176;2024-03-23T12:57:31;7.40;83.70
8882;DHT22;4477;48.736;9.176;2024-03-23T12:59:58;7.10;82.40
8882;DHT22;4477;48.736;9.176;2024-03-23T13:02:24;7.10;84.90
8882;DHT22;4477;48.736;9.176;2024-03-23T13:04:51;7.30;82.60
8882;DHT22;4477;48.736;9.176;2024-03-23T13:07:18;8.10;86.20
8882;DHT22;4477;48.736;9.176;2024-03-23T13:09:46;8.40;82.60
8882;DHT22;4477;48.736;9.176;2024-03-23T13:12:13;8.30;81.00
8882;DHT22;4477;48.736;9.176;2024-03-23T13:14:40;8.10;83.80
8882;DHT22;4477;48.736;9.176;2024-03-23T13:17:08;8.00;85.30
8882;DHT22;4477;48.736;9.176;2024-03-23T13:19:34;7.80;84.20
8882;DHT22;4477;48.736;9.176;2024-03-23T13:22:01;8.30;85.00
8882;DHT22;4477;48.736;9.176;2024-03-23T13:24:28;9.30;81.00
8882;DHT22;4477;48.736;9.176;2024-03-23T13:26:55;10.10;77.20
8882;DHT22;4477;48.736;9.176;2024-03-23T13:29:24;9.60;77.00
8882;DHT22;4477;48.736;9.176;2024-03-23T13:31:52;9.40;79.00
8882;DHT22;4477;48.736;9.176;2024-03-23T13:34:18;8.90;73.10
8882;DHT22;4477;48.736;9.176;2024-03-23T13:36:46;8.20;70.10
8882;DHT22;4477;48.736;9.176;2024-03-23T13:39:12;7.70;70.30
8882;DHT22;4477;48.736;9.176;2024-03-23T13:41:41;7.80;69.90
8882;DHT22;4477;48.736;9.176;2024-03-23T13:44:07;9.50;67.00
8882;DHT22;4477;48.736;9.176;2024-03-23T13:46:37;10.30;64.40
8882;DHT22;4477;48.736;9.176;2024-03-23T13:49:04;10.80;58.00
8882;DHT22;4477;48.736;9.176;2024-03-23T13:51:31;10.50;57.50
8882;DHT22;4477;48.736;9.176;2024-03-23T13:53:57;10.50;61.10
8882;DHT22;4477;48.736;9.176;2024-03-23T13:56:26;10.70;63.00
8882;DHT22;4477;48.736;9.176;2024-03-23T13:58:54;10.20;61.60
8882;DHT22;4477;48.736;9.176;2024-03-23T14:01:20;9.80;66.50
8882;DHT22;4477;48.736;9.176;2024-03-23T14:03:48;9.40;69.00
8882;DHT22;4477;48.736;9.176;2024-03-23T14:06:15;9.30;67.80
8882;DHT22;4477;48.736;9.176;2024-03-23T14:08:41;8.70;71.90
8882;DHT22;4477;48.736;9.176;2024-03-23T14:11:09;8.40;74.70
8882;DHT22;4477;48.736;9.176;2024-03-23T14:13:35;8.00;74.60
8882;DHT22;4477;48.736;9.176;2024-03-23T14:16:02;7.70;78.10
8882;DHT22;4477;48.736;9.176;2024-03-23T14:18:28;7.30;81.20
8882;DHT22;4477;48.736;9.176;2024-03-23T14:20:58;7.20;84.30
8882;DHT22;4477;48.736;9.176;2024-03-23T14:23:25;6.60;89.30
8882;DHT22;4477;48.736;9.176;2024-03-23T14:25:55;7.00;93.10
8882;DHT22;4477;48.736;9.176;2024-03-23T14:28:22;8.70;92.40
8882;DHT22;4477;48.736;9.176;2024-03-23T14:30:49;9.80;89.50
8882;DHT22;4477;48.736;9.176;2024-03-23T14:33:15;10.20;79.40
8882;DHT22;4477;48.736;9.176;2024-03-23T14:35:42;10.40;77.00
8882;DHT22;4477;48.736;9.176;2024-03-23T14:38:09;10.20;79.70
8882;DHT22;4477;48.736;9.176;2024-03-23T14:40:36;10.70;80.80
8882;DHT22;4477;48.736;9.176;2024-03-23T14:43:02;10.80;77.10
8882;DHT22;4477;48.736;9.176;2024-03-23T14:45:29;11.20;78.40
8882;DHT22;4477;48.736;9.176;2024-03-23T14:47:55;11.00;72.40
8882;DHT22;4477;48.736;9.176;2024-03-23T14:50:23;10.90;76.90
8882;DHT22;4477;48.736;9.176;2024-03-23T14:52:50;11.00;75.80
8882;DHT22;4477;48.736;9.176;2024-03-23T14:55:18;10.70;72.90
8882;DHT22;4477;48.736;9.176;2024-03-23T14:57:45;8.80;76.90
8882;DHT22;4477;48.736;9.176;2024-03-23T15:00:12;7.90;79.20
8882;DHT22;4477;48.736;9.176;2024-03-23T15:02:38;7.30;81.30
8882;DHT22;4477;48.736;9.176;2024-03-23T15:05:06;7.00;84.30
8882;DHT22;4477;48.736;9.176;2024-03-23T15:07:35;6.00;88.40
8882;DHT22;4477;48.736;9.176;2024-03-23T15:10:02;5.10;93.80
8882;DHT22;4477;48.736;9.176;2024-03-23T15:12:31;4.80;99.90
8882;DHT22;4477;48.736;9.176;2024-03-23T15:14:59;4.80;99.90
8882;DHT22;4477;48.736;9.176;2024-03-23T15:17:25;4.70;99.90
8882;DHT22;4477;48.736;9.176;2024-03-23T15:19:52;5.30;99.90
8882;DHT22;4477;48.736;9.176;2024-03-23T15:22:19;5.90;99.90
8882;DHT22;4477;48.736;9.176;2024-03-23T15:24:46;6.60;99.90
8882;DHT22;4477;48.736;9.176;2024-03-23T15:27:11;7.20;99.90
8882;DHT22;4477;48.736;9.176;2024-03-23T15:29:40;7.70;99.90
8882;DHT22;4477;48.736;9.176;2024-03-23T15:32:07;7.90;96.80
8882;DHT22;4477;48.736;9.176;2024-03-23T15:34:34;8.40;95.00
8882;DHT22;4477;48.736;9.176;2024-03-23T15:37:01;8.50;93.00
8882;DHT22;4477;48.736;9.176;2024-03-23T15:39:27;7.20;92.80
8882;DHT22;4477;48.736;9.176;2024-03-23T15:41:54;6.20;94.50
8882;DHT22;4477;48.736;9.176;2024-03-23T15:44:21;6.20;97.00
8882;DHT22;4477;48.736;9.176;2024-03-23T15:46:48;6.10;96.30
8882;DHT22;4477;48.736;9.176;2024-03-23T15:49:15;6.20;95.60
8882;DHT22;4477;48.736;9.176;2024-03-23T15:51:41;6.80;94.30
8882;DHT22;4477;48.736;9.176;2024-03-23T15:54:09;7.00;94.20
8882;DHT22;4477;48.736;9.176;2024-03-23T15:56:35;6.50;93.40
8882;DHT22;4477;48.736;9.176;2024-03-23T15:59:02;6.00;93.90
8882;DHT22;4477;48.736;9.176;2024-03-23T16:01:31;5.60;94.20
8882;DHT22;4477;48.736;9.176;2024-03-23T16:04:01;5.30;95.50
8882;DHT22;4477;48.736;9.176;2024-03-23T16:06:27;5.20;95.30
8882;DHT22;4477;48.736;9.176;2024-03-23T16:08:54;5.40;96.10
8882;DHT22;4477;48.736;9.176;2024-03-23T16:11:20;6.20;94.70
8882;DHT22;4477;48.736;9.176;2024-03-23T16:13:47;6.50;90.80
8882;DHT22;4477;48.736;9.176;2024-03-23T16:16:13;6.60;90.30
8882;DHT22;4477;48.736;9.176;2024-03-23T16:18:41;6.30;91.10
8882;DHT22;4477;48.736;9.176;2024-03-23T16:21:10;6.10;91.00
8882;DHT22;4477;48.736;9.176;2024-03-23T16:23:38;5.70;91.40
8882;DHT22;4477;48.736;9.176;2024-03-23T16:26:06;5.40;92.00
8882;DHT22;4477;48.736;9.176;2024-03-23T16:28:34;5.10;92.80
8882;DHT22;4477;48.736;9.176;2024-03-23T16:31:02;5.00;93.00
8882;DHT22;4477;48.736;9.176;2024-03-23T16:33:30;4.90;93.10
8882;DHT22;4477;48.736;9.176;2024-03-23T16:36:00;4.90;93.80
8882;DHT22;4477;48.736;9.176;2024-03-23T16:38:29;4.90;93.00
8882;DHT22;4477;48.736;9.176;2024-03-23T16:40:57;4.90;93.10
8882;DHT22;4477;48.736;9.176;2024-03-23T16:43:25;4.90;93.20
8882;DHT22;4477;48.736;9.176;2024-03-23T16:45:56;5.00;93.50
8882;DHT22;4477;48.736;9.176;2024-03-23T16:48:24;5.10;93.50
8882;DHT22;4477;48.736;9.176;2024-03-23T16:50:50;5.10;96.60
8882;DHT22;4477;48.736;9.176;2024-03-23T16:53:17;5.00;97.90
8882;DHT22;4477;48.736;9.176;2024-03-23T16:55:45;5.00;98.50
8882;DHT22;4477;48.736;9.176;2024-03-23T16:58:12;4.90;98.00
8882;DHT22;4477;48.736;9.176;2024-03-23T17:00:38;4.70;99.00
8882;DHT22;4477;48.736;9.176;2024-03-23T17:03:05;4.60;99.30
8882;DHT22;4477;48.736;9.176;2024-03-23T17:05:36;4.50;99.90
8882;DHT22;4477;48.736;9.176;2024-03-23T17:08:04;4.40;99.90
8882;DHT22;4477;48.736;9.176;2024-03-23T17:10:30;4.30;99.70
8882;DHT22;4477;48.736;9.176;2024-03-23T17:12:59;4.20;99.90